createdAt,value
2018-06-24T00:00:36.308Z,13.80
2018-06-24T00:03:18.741Z,13.90
2018-06-24T00:05:47.774Z,13.80
2018-06-24T00:08:16.443Z,13.80
2018-06-24T00:10:45.108Z,13.90
2018-06-24T00:13:14.011Z,13.80
2018-06-24T00:15:42.806Z,13.80
2018-06-24T00:18:24.290Z,13.80
2018-06-24T00:20:53.832Z,13.80
2018-06-24T00:23:23.786Z,13.80
2018-06-24T00:25:52.977Z,13.90
2018-06-24T00:28:21.848Z,13.90
2018-06-24T00:30:50.572Z,13.80
2018-06-24T00:33:21.405Z,13.80
2018-06-24T00:35:50.458Z,13.80
2018-06-24T00:38:22.505Z,13.70
2018-06-24T00:40:51.179Z,13.70
2018-06-24T00:43:24.557Z,13.70
2018-06-24T00:45:53.153Z,13.60
2018-06-24T00:48:28.343Z,13.60
2018-06-24T00:50:58.159Z,13.60
2018-06-24T00:53:28.710Z,13.50
2018-06-24T00:55:57.368Z,13.60
2018-06-24T00:58:38.791Z,13.50
2018-06-24T01:01:08.183Z,13.50
2018-06-24T01:03:36.773Z,13.40
2018-06-24T01:06:07.168Z,13.40
2018-06-24T01:08:36.233Z,13.30
2018-06-24T01:11:04.943Z,13.30
2018-06-24T01:13:37.158Z,13.30
2018-06-24T01:16:05.850Z,13.30
2018-06-24T01:18:38.910Z,13.30
2018-06-24T01:21:07.638Z,13.20
2018-06-24T01:23:40.557Z,13.20
2018-06-24T01:26:09.124Z,13.20
2018-06-24T01:28:45.093Z,13.20
2018-06-24T01:31:14.245Z,13.30
2018-06-24T01:33:45.407Z,13.30
2018-06-24T01:36:14.848Z,13.30
2018-06-24T01:41:25.105Z,13.40
2018-06-24T01:43:53.909Z,13.30
2018-06-24T01:46:22.971Z,13.20
2018-06-24T01:48:52.856Z,13.30
2018-06-24T01:51:21.661Z,13.20
2018-06-24T01:54:03.178Z,13.20
2018-06-24T01:56:31.929Z,13.30
2018-06-24T02:01:29.011Z,13.20
2018-06-24T02:03:58.648Z,13.20
2018-06-24T02:06:27.324Z,13.20
2018-06-24T02:09:01.199Z,13.10
2018-06-24T02:11:30.476Z,13.20
2018-06-24T02:14:12.835Z,13.20
2018-06-24T02:16:41.657Z,13.10
2018-06-24T02:19:12.437Z,13.10
2018-06-24T02:21:41.336Z,13.00
2018-06-24T02:24:10.322Z,13.00
2018-06-24T02:26:39.022Z,13.10
2018-06-24T02:29:11.282Z,13.10
2018-06-24T02:31:41.992Z,13.40
2018-06-24T02:34:12.315Z,13.10
2018-06-24T02:36:41.200Z,13.10
2018-06-24T02:39:22.688Z,13.10
2018-06-24T02:44:20.206Z,14.50
2018-06-24T02:46:48.946Z,13.10
2018-06-24T02:49:18.646Z,13.20
2018-06-24T02:54:28.644Z,13.00
2018-06-24T02:56:58.417Z,12.80
2018-06-24T02:59:27.796Z,12.80
2018-06-24T03:01:56.767Z,12.60
2018-06-24T03:04:25.708Z,12.60
2018-06-24T03:06:55.418Z,12.50
2018-06-24T03:09:25.764Z,12.60
2018-06-24T03:14:28.160Z,12.50
2018-06-24T03:16:56.892Z,11.80
2018-06-24T03:19:29.490Z,12.50
2018-06-24T03:21:58.297Z,12.50
2018-06-24T03:24:39.695Z,12.50
2018-06-24T03:27:08.519Z,12.40
2018-06-24T03:29:37.781Z,12.40
2018-06-24T03:32:06.606Z,12.30
2018-06-24T03:34:36.117Z,12.30
2018-06-24T03:37:04.762Z,12.30
2018-06-24T03:39:46.503Z,12.20
2018-06-24T03:44:43.670Z,12.30
2018-06-24T03:47:12.444Z,12.30
2018-06-24T03:49:43.042Z,12.30
2018-06-24T03:52:11.623Z,12.40
2018-06-24T03:54:52.968Z,12.40
2018-06-24T03:57:21.952Z,12.50
2018-06-24T03:59:50.525Z,12.50
2018-06-24T04:02:19.177Z,12.50
2018-06-24T04:04:48.211Z,12.50
2018-06-24T04:07:16.780Z,12.50
2018-06-24T04:09:50.018Z,12.40
2018-06-24T04:12:18.856Z,12.40
2018-06-24T04:14:51.872Z,12.40
2018-06-24T04:17:21.075Z,12.40
2018-06-24T04:19:54.305Z,12.50
2018-06-24T04:22:22.866Z,12.50
2018-06-24T04:24:56.166Z,12.60
2018-06-24T04:27:25.534Z,12.70
2018-06-24T04:29:58.659Z,12.70
2018-06-24T04:34:59.993Z,12.80
2018-06-24T04:37:28.609Z,12.90
2018-06-24T04:40:02.715Z,13.00
2018-06-24T04:45:04.192Z,13.00
2018-06-24T04:50:06.889Z,13.50
2018-06-24T04:52:35.706Z,13.80
2018-06-24T04:55:09.461Z,13.80
2018-06-24T04:57:38.068Z,13.80
2018-06-24T05:00:12.400Z,13.80
2018-06-24T05:02:41.705Z,13.80
2018-06-24T05:05:14.936Z,13.70
2018-06-24T05:07:43.471Z,15.20
2018-06-24T05:10:17.340Z,13.80
2018-06-24T05:12:46.518Z,13.80
2018-06-24T05:15:19.372Z,13.90
2018-06-24T05:17:48.218Z,13.90
2018-06-24T05:20:30.380Z,14.00
2018-06-24T05:25:27.861Z,13.80
2018-06-24T05:27:56.368Z,13.80
2018-06-24T05:30:25.393Z,13.90
2018-06-24T05:32:54.688Z,13.80
2018-06-24T05:35:27.655Z,13.80
2018-06-24T05:37:56.475Z,13.70
2018-06-24T05:40:37.637Z,13.70
2018-06-24T05:43:06.830Z,14.00
2018-06-24T05:45:35.581Z,14.50
2018-06-24T05:48:05.816Z,14.60
2018-06-24T05:50:34.808Z,15.10
2018-06-24T05:53:03.595Z,15.80
2018-06-24T05:55:36.044Z,16.70
2018-06-24T05:58:05.297Z,16.80
2018-06-24T06:00:46.557Z,17.30
2018-06-24T06:03:15.549Z,17.20
2018-06-24T06:05:44.441Z,16.80
2018-06-24T06:08:13.357Z,16.80
2018-06-24T06:10:42.209Z,16.90
2018-06-24T06:13:10.882Z,16.80
2018-06-24T06:15:46.405Z,18.90
2018-06-24T06:18:15.106Z,17.50
2018-06-24T06:20:47.556Z,18.10
2018-06-24T06:23:16.448Z,18.30
2018-06-24T06:28:25.276Z,17.50
2018-06-24T06:33:22.029Z,16.50
2018-06-24T06:40:53.256Z,16.50
2018-06-24T06:43:22.097Z,17.00
2018-06-24T06:48:20.900Z,17.80
2018-06-24T06:50:49.795Z,17.50
2018-06-24T06:55:46.680Z,17.20
2018-06-24T06:58:16.162Z,17.70
2018-06-24T07:00:45.925Z,17.80
2018-06-24T07:03:14.573Z,17.70
2018-06-24T07:05:43.111Z,17.90
2018-06-24T07:08:11.613Z,18.20
2018-06-24T07:18:21.175Z,17.80
2018-06-24T07:20:49.852Z,18.60
2018-06-24T07:25:47.928Z,17.40
2018-06-24T07:28:16.495Z,17.20
2018-06-24T07:30:45.161Z,17.00
2018-06-24T07:35:47.141Z,16.70
2018-06-24T07:38:29.164Z,16.90
2018-06-24T07:40:58.581Z,16.40
2018-06-24T07:43:27.978Z,17.40
2018-06-24T07:45:56.937Z,17.50
2018-06-24T07:48:26.878Z,17.30
2018-06-24T07:50:56.169Z,17.40
2018-06-24T07:53:26.177Z,16.00
2018-06-24T07:58:27.749Z,17.00
2018-06-24T08:06:10.779Z,16.50
2018-06-24T08:08:40.177Z,16.40
2018-06-24T08:11:10.444Z,16.60
2018-06-24T08:13:41.203Z,16.70
2018-06-24T08:16:10.263Z,16.80
2018-06-24T08:21:09.073Z,16.60
2018-06-24T08:23:38.107Z,16.00
2018-06-24T08:26:07.104Z,16.60
2018-06-24T08:28:48.673Z,16.70
2018-06-24T08:33:46.892Z,17.00
2018-06-24T08:36:16.036Z,17.00
2018-06-24T08:41:21.548Z,17.20
2018-06-24T08:46:19.182Z,17.40
2018-06-24T08:51:18.073Z,17.80
2018-06-24T08:54:00.104Z,17.90
2018-06-24T08:56:28.703Z,18.40
2018-06-24T08:59:00.485Z,18.40
2018-06-24T09:06:27.180Z,18.20
2018-06-24T09:08:57.520Z,18.20
2018-06-24T09:13:59.597Z,18.10
2018-06-24T09:16:28.665Z,17.90
2018-06-24T09:19:09.658Z,17.60
2018-06-24T09:21:38.460Z,17.90
2018-06-24T09:26:36.177Z,18.10
2018-06-24T09:29:06.581Z,17.80
2018-06-24T09:31:35.328Z,17.40
2018-06-24T09:34:17.745Z,17.40
2018-06-24T09:39:15.312Z,17.30
2018-06-24T09:41:46.186Z,16.90
2018-06-24T09:44:14.978Z,16.90
2018-06-24T09:46:43.575Z,16.90
2018-06-24T09:54:19.134Z,18.40
2018-06-24T09:56:48.665Z,17.60
2018-06-24T09:59:17.879Z,17.20
2018-06-24T10:09:25.951Z,17.10
2018-06-24T10:14:24.161Z,18.10
2018-06-24T10:16:53.011Z,18.00
2018-06-24T10:19:36.173Z,18.10
2018-06-24T10:22:07.104Z,18.30
2018-06-24T10:24:36.169Z,18.40
2018-06-24T10:27:05.297Z,18.60
2018-06-24T10:32:04.040Z,18.80
2018-06-24T10:34:32.585Z,19.00
2018-06-24T10:37:02.605Z,18.60
2018-06-24T10:42:03.601Z,19.00
2018-06-24T10:49:39.572Z,19.60
2018-06-24T10:52:08.676Z,19.50
2018-06-24T10:54:41.342Z,20.10
2018-06-24T10:57:10.264Z,19.90
2018-06-24T10:59:43.314Z,19.90
2018-06-24T11:04:47.574Z,20.20
2018-06-24T11:12:15.002Z,20.30
2018-06-24T11:14:48.309Z,20.20
2018-06-24T11:17:18.220Z,19.30
2018-06-24T11:22:27.722Z,19.60
2018-06-24T11:34:59.726Z,20.00
2018-06-24T11:37:28.288Z,20.40
2018-06-24T11:40:00.671Z,20.50
2018-06-24T11:45:03.204Z,19.50
2018-06-24T11:47:31.948Z,19.80
2018-06-24T11:52:42.103Z,20.20
2018-06-24T11:55:10.676Z,20.40
2018-06-24T12:00:11.683Z,20.20
2018-06-24T12:10:15.041Z,20.60
2018-06-24T12:12:45.084Z,21.00
2018-06-24T12:15:16.318Z,20.50
2018-06-24T12:20:20.587Z,20.30
2018-06-24T12:22:50.433Z,20.00
2018-06-24T12:30:22.502Z,20.30
2018-06-24T12:32:52.020Z,20.40
2018-06-24T12:35:21.772Z,20.80
2018-06-24T12:37:52.104Z,20.80
2018-06-24T12:42:58.200Z,21.10
2018-06-24T12:45:27.252Z,21.10
2018-06-24T12:50:37.092Z,21.40
2018-06-24T12:53:07.047Z,21.10
2018-06-24T12:58:04.525Z,20.80
2018-06-24T13:03:02.742Z,20.70
2018-06-24T13:05:35.393Z,20.90
2018-06-24T13:10:38.276Z,21.10
2018-06-24T13:13:07.207Z,21.10
2018-06-24T13:23:17.755Z,20.70
2018-06-24T13:25:49.837Z,21.00
2018-06-24T13:28:22.687Z,20.80
2018-06-24T13:30:55.297Z,21.00
2018-06-24T13:33:24.683Z,20.70
2018-06-24T13:35:54.514Z,20.80
2018-06-24T13:38:27.277Z,21.00
2018-06-24T13:43:25.264Z,21.00
2018-06-24T13:45:57.074Z,21.20
2018-06-24T13:53:24.310Z,20.90
2018-06-24T13:55:57.366Z,21.00
2018-06-24T13:58:26.160Z,21.10
2018-06-24T14:00:58.007Z,21.20
2018-06-24T14:03:28.551Z,21.20
2018-06-24T14:06:03.739Z,21.10
2018-06-24T14:11:02.607Z,21.30
2018-06-24T14:18:37.310Z,20.90
2018-06-24T14:23:37.663Z,20.80
2018-06-24T14:28:47.511Z,20.60
2018-06-24T14:33:45.913Z,20.60
2018-06-24T14:36:16.243Z,20.50
2018-06-24T14:38:45.164Z,20.20
2018-06-24T14:41:15.489Z,19.50
2018-06-24T14:43:44.635Z,19.90
2018-06-24T14:46:17.044Z,19.80
2018-06-24T14:56:22.005Z,19.70
2018-06-24T14:58:51.264Z,19.60
2018-06-24T15:01:25.168Z,20.30
2018-06-24T15:08:55.158Z,18.00
2018-06-24T15:11:27.613Z,19.70
2018-06-24T15:14:15.177Z,19.70
2018-06-24T15:16:48.540Z,19.90
2018-06-24T15:19:17.336Z,19.90
2018-06-24T15:21:46.072Z,20.00
2018-06-24T15:36:40.106Z,20.20
2018-06-24T15:41:41.580Z,20.30
2018-06-24T15:46:41.643Z,20.20
2018-06-24T15:54:14.220Z,20.10
2018-06-24T16:01:57.348Z,19.60
2018-06-24T16:04:27.360Z,19.60
2018-06-24T16:06:57.252Z,19.50
2018-06-24T16:09:26.721Z,19.60
2018-06-24T16:17:09.673Z,19.40
2018-06-24T16:24:46.189Z,19.50
2018-06-24T16:29:45.474Z,19.60
2018-06-24T16:32:14.381Z,19.80
2018-06-24T16:34:44.119Z,19.60
2018-06-24T16:37:13.346Z,19.00
2018-06-24T16:39:42.117Z,19.20
2018-06-24T16:42:11.215Z,19.40
2018-06-24T16:47:09.764Z,19.40
2018-06-24T16:49:38.756Z,19.20
2018-06-24T16:52:12.110Z,18.90
2018-06-24T16:54:42.565Z,18.90
2018-06-24T16:57:14.267Z,19.40
2018-06-24T16:59:43.569Z,19.00
2018-06-24T17:02:24.536Z,18.80
2018-06-24T17:04:54.029Z,18.70
2018-06-24T17:09:51.218Z,18.60
2018-06-24T17:12:21.265Z,18.50
2018-06-24T17:14:50.185Z,18.40
2018-06-24T17:17:22.562Z,18.20
2018-06-24T17:19:51.661Z,18.20
2018-06-24T17:22:23.280Z,18.10
2018-06-24T17:27:27.070Z,18.20
2018-06-24T17:34:56.123Z,18.10
2018-06-24T17:40:00.832Z,17.90
2018-06-24T17:47:32.861Z,17.70
2018-06-24T17:57:37.499Z,17.60
2018-06-24T18:00:06.053Z,17.60
2018-06-24T18:02:40.093Z,16.30
2018-06-24T18:10:09.537Z,17.40
2018-06-24T18:12:45.817Z,17.50
2018-06-24T18:15:15.270Z,17.40
2018-06-24T18:17:46.382Z,17.30
2018-06-24T18:30:19.761Z,17.30
2018-06-24T18:32:51.881Z,17.20
2018-06-24T18:35:21.459Z,17.30
2018-06-24T18:40:27.169Z,17.10
2018-06-24T18:42:57.120Z,17.10
2018-06-24T18:52:59.651Z,17.10
2018-06-24T18:55:28.648Z,17.00
2018-06-24T18:58:04.441Z,17.00
2018-06-24T19:03:07.657Z,17.00
2018-06-24T19:05:36.649Z,16.90
2018-06-24T19:08:10.439Z,16.90
2018-06-24T19:10:40.614Z,16.90
2018-06-24T19:13:10.666Z,16.90
2018-06-24T19:15:40.652Z,16.80
2018-06-24T19:23:14.568Z,16.70
2018-06-24T19:25:43.479Z,16.50
2018-06-24T19:28:16.163Z,16.50
2018-06-24T19:30:46.622Z,16.50
2018-06-24T19:35:52.109Z,16.40
2018-06-24T19:38:21.939Z,16.40
2018-06-24T19:40:53.188Z,16.40
2018-06-24T19:43:25.648Z,16.40
2018-06-24T19:50:55.340Z,16.30
2018-06-24T19:53:25.931Z,16.30
2018-06-24T19:55:56.412Z,16.20
2018-06-24T19:58:29.116Z,16.20
2018-06-24T20:00:58.597Z,16.20
2018-06-24T20:03:31.488Z,16.20
2018-06-24T20:08:34.705Z,16.10
2018-06-24T20:11:04.710Z,16.20
2018-06-24T20:16:04.879Z,16.10
2018-06-24T20:21:03.929Z,16.10
2018-06-24T20:23:47.389Z,14.50
2018-06-24T20:26:16.182Z,16.10
2018-06-24T20:28:48.143Z,16.10
2018-06-24T20:33:47.446Z,16.00
2018-06-24T20:38:46.425Z,16.00
2018-06-24T20:51:18.664Z,15.90
2018-06-24T20:56:18.195Z,15.90
2018-06-24T21:03:54.486Z,15.70
2018-06-24T21:06:24.231Z,15.60
2018-06-24T21:13:59.928Z,15.50
2018-06-24T21:16:30.178Z,15.40
2018-06-24T21:19:06.274Z,15.40
2018-06-24T21:21:36.689Z,15.40
2018-06-24T21:26:34.971Z,15.90
2018-06-24T21:29:05.863Z,15.20
2018-06-24T21:31:36.479Z,15.20
2018-06-24T21:34:09.071Z,15.10
2018-06-24T21:46:46.253Z,14.60
2018-06-24T21:54:17.500Z,14.60
2018-06-24T22:04:23.521Z,14.60
2018-06-24T22:06:58.762Z,14.70
2018-06-24T22:12:03.725Z,14.60
2018-06-24T22:14:32.648Z,14.60
2018-06-24T22:17:02.326Z,14.50
2018-06-24T22:19:31.285Z,14.60
2018-06-24T22:22:00.291Z,14.50
2018-06-24T22:24:29.266Z,14.50
2018-06-24T22:27:01.002Z,14.40
2018-06-24T22:29:33.153Z,14.40
2018-06-24T22:37:04.220Z,14.50
2018-06-24T22:39:34.975Z,15.30
2018-06-24T22:42:03.684Z,14.30
2018-06-24T22:47:13.645Z,14.50
2018-06-24T22:49:42.638Z,14.40
2018-06-24T22:52:13.906Z,14.40
2018-06-24T22:57:12.606Z,14.40
2018-06-24T22:59:57.657Z,14.40
2018-06-24T23:07:28.104Z,14.30
2018-06-24T23:09:57.544Z,14.30
2018-06-24T23:19:51.221Z,14.30
2018-06-24T23:22:20.168Z,14.30
2018-06-24T23:34:52.876Z,14.30
2018-06-24T23:37:23.316Z,14.20
2018-06-24T23:39:52.092Z,14.30
2018-06-24T23:44:54.088Z,14.20
2018-06-24T23:47:24.161Z,14.20
2018-06-24T23:49:53.161Z,14.10
2018-06-24T23:52:21.911Z,14.10
2018-06-24T23:59:47.210Z,14.10
